Cape Neddick, Maine
Current Conditions -  °F | °C
As of 6:27 AM on Thursday 23 Oct 2014 (Local Time) from KPSM Reporting Station
Light Rain Light Rain  
Wind Chill: 41°   Ceiling: 400
Heat Index: 48°   Visibility: 1.2mi
Dew Point: 46°   Wind: 20mph
Humidity: 93%   Direction: 20°NNE
Pressure: 29.71"   Gusts: 35mph
Location:  43.17°N, 70.62°W
Report Text: KPSM 231027Z 02017G30KT 1 1/4SM -RA BR OVC004 09/08 A2971 RMK AO2A
Loading
Personal Weather Stations






























Interactive Weather Map
Tropical Storm Tracking
New forecast layout! Learn more

10-Day Weather Forecast

Advertisements
Track Severe Weather on mobile